RJOT Airport Information

Runway Information
Runway 08 Length 8200 ft width 200 ft Elevation 583 ft Threshold N/A Heading 73
Runway 26 Length 8200 ft Width 200 ft Elevation 586 ft Threshold N/A Heading 253
Airport Frequencies
Type APP Name APP Frequency 121.2 MHZ
Type ATIS Name ATIS Frequency 127.45 MHZ
Type DEP Name DEP Frequency 120.4 MHZ
Type TCA Name TCA Frequency 119.025 MHZ
Type TWR Name TWR Frequency 118.3 MHZ
Airport Navaids
Type VOR-DME Name Kagawa Frequency 108400 KHZ
Type VORTAC Name Takamatsu Frequency 117500 KHZ
Airport Weather Information & NOTAM
ADDS - METARS form results

(1814 UTC 27 November 2022)
Data provider http://aviationweather.gov/metar/data/
 
Forecast for: RJOT (TAKAMATSU AIRPOR, JP)
Text: TAF RJOT 271706Z 2718/2900 15005KT 9999 FEW030
Forecast period: 1800 UTC 27 November 2022 to 0000 UTC 29 November 2022
Forecast type: FROM: standard forecast or significant change
Winds: from the SSE (150 degrees) at 6 MPH (5 knots; 2.6 m/s)
Visibility: 6 or more miles (10+ km)
Ceiling: at least 12,000 feet AGL
Clouds: few clouds at 3000 feet AGL
Weather: no significant weather forecast for this period
Text: TEMPO 2821/2900 4000 SHRA BR
Forecast period: 2100 UTC 28 November 2022 to 0000 UTC 29 November 2022
Forecast type: TEMPORARY: The following changes expected for less than half the time period
Visibility: 2.49 miles (4.01 km)
Ceiling: unknown
Clouds: missing
Weather: SHRA BR  (rain showers, mist)